Time;durP1;ratioP1;P1;durP2;ratioP2;P2;SDS_P1;SDS_P2;PMS_P1;PMS_P2;Temp;Humidity;BMP_temperature;BMP_pressure;BME280_temperature;BME280_humidity;BME280_pressure;Samples;Min_cycle;Max_cycle;Signal;HPM_P1;HPM_P2
2022/01/04 00:00:22;;;;;;;36.13;27.50;;;;;;;5.17;100.00;99668.31;6184245;23;20398;-84
2022/01/04 00:02:48;;;;;;;38.08;28.23;;;;;;;5.09;100.00;99656.63;6183180;23;20036;-84
2022/01/04 00:05:14;;;;;;;37.20;27.45;;;;;;;5.17;100.00;99671.06;6132835;23;20017;-84
2022/01/04 00:07:39;;;;;;;39.55;30.15;;;;;;;5.14;100.00;99669.88;6133170;23;20064;-84
2022/01/04 00:10:08;;;;;;;37.20;29.08;;;;;;;5.05;100.00;99660.59;6157102;23;20435;-84
2022/01/04 00:15:18;;;;;;;40.30;28.60;;;;;;;5.05;100.00;99657.84;6136507;23;20087;-84
2022/01/04 00:17:45;;;;;;;39.13;29.42;;;;;;;5.03;100.00;99651.94;6183603;23;20436;-84
2022/01/04 00:20:11;;;;;;;39.38;29.73;;;;;;;5.01;100.00;99641.38;6183347;23;20340;-84
2022/01/04 00:22:37;;;;;;;37.03;28.88;;;;;;;4.94;100.00;99632.41;6157534;23;20013;-84
2022/01/04 00:25:04;;;;;;;38.90;29.38;;;;;;;4.98;100.00;99635.91;6157172;23;20001;-85
2022/01/04 00:27:29;;;;;;;37.25;27.65;;;;;;;4.86;100.00;99617.19;6132716;23;20040;-84
2022/01/04 00:29:55;;;;;;;36.38;27.73;;;;;;;4.84;100.00;99608.56;6132352;23;20336;-84
2022/01/04 00:32:20;;;;;;;36.00;28.00;;;;;;;4.85;100.00;99623.88;6132291;23;20025;-84
2022/01/04 00:34:46;;;;;;;33.40;27.17;;;;;;;4.83;100.00;99618.00;6157409;23;20012;-84
2022/01/04 00:37:12;;;;;;;33.72;26.83;;;;;;;4.79;100.00;99626.28;6132358;23;20020;-84
2022/01/04 00:39:37;;;;;;;34.88;27.00;;;;;;;4.73;100.00;99600.47;6132910;23;20128;-84
2022/01/04 00:42:03;;;;;;;35.00;26.60;;;;;;;4.70;100.00;99618.50;6156827;23;20446;-84
2022/01/04 00:44:28;;;;;;;35.72;26.40;;;;;;;4.69;100.00;99614.19;6156934;23;20005;-87
2022/01/04 00:46:54;;;;;;;34.38;26.45;;;;;;;4.69;100.00;99616.94;6183335;23;20036;-84
2022/01/04 00:49:21;;;;;;;36.17;25.95;;;;;;;4.61;100.00;99601.72;6157177;23;20013;-84
2022/01/04 00:51:49;;;;;;;33.13;26.20;;;;;;;4.59;100.00;99604.13;6156835;23;20011;-84
2022/01/04 00:54:18;;;;;;;35.55;25.98;;;;;;;4.62;100.00;99600.53;6156738;23;20041;-84
2022/01/04 00:56:45;;;;;;;31.95;24.67;;;;;;;4.58;100.00;99597.06;6133106;23;20041;-84
2022/01/04 00:59:11;;;;;;;31.45;24.70;;;;;;;4.54;100.00;99598.25;6132246;23;20074;-84
2022/01/04 01:01:37;;;;;;;34.08;24.42;;;;;;;4.54;100.00;99592.78;6182928;23;20013;-84
2022/01/04 01:04:05;;;;;;;32.75;24.52;;;;;;;4.56;100.00;99585.69;6156498;23;20013;-84
2022/01/04 01:06:31;;;;;;;31.48;24.02;;;;;;;4.54;100.00;99570.81;6132443;23;20088;-84
2022/01/04 01:08:56;;;;;;;32.03;24.25;;;;;;;4.53;100.00;99578.25;6156983;23;20390;-84
2022/01/04 01:11:22;;;;;;;35.75;24.85;;;;;;;4.49;100.00;99572.03;6132313;23;20084;-84
2022/01/04 01:13:48;;;;;;;33.78;25.13;;;;;;;4.48;100.00;99573.22;6156464;23;20063;-84
2022/01/04 01:16:13;;;;;;;32.92;23.13;;;;;;;4.45;100.00;99581.50;6156639;23;20324;-84
2022/01/04 01:18:42;;;;;;;31.95;24.25;;;;;;;4.45;100.00;99574.03;6156851;23;20084;-84
2022/01/04 01:21:08;;;;;;;27.90;21.67;;;;;;;4.43;100.00;99570.91;6132057;23;20092;-84
2022/01/04 01:23:35;;;;;;;30.90;22.73;;;;;;;4.36;100.00;99565.50;6107732;23;20052;-84
2022/01/04 01:26:01;;;;;;;29.55;22.52;;;;;;;4.27;100.00;99556.94;6156695;23;20019;-84
2022/01/04 01:28:26;;;;;;;30.13;22.92;;;;;;;4.26;100.00;99554.59;6182800;23;20012;-84
2022/01/04 01:30:52;;;;;;;30.77;22.92;;;;;;;4.23;100.00;99545.22;6156883;23;20013;-84
2022/01/04 01:33:18;;;;;;;27.75;21.25;;;;;;;4.27;100.00;99556.16;6132104;23;20056;-84
2022/01/04 01:35:45;;;;;;;30.63;22.63;;;;;;;4.24;100.00;99552.28;6132318;23;20005;-84
2022/01/04 01:38:12;;;;;;;32.03;23.45;;;;;;;4.24;100.00;99535.81;6130807;23;20083;-84
2022/01/04 01:40:37;;;;;;;32.47;25.10;;;;;;;4.23;100.00;99528.75;6107722;23;20017;-84
2022/01/04 01:43:03;;;;;;;32.17;23.60;;;;;;;4.20;100.00;99513.09;6156043;23;20005;-84
2022/01/04 01:45:30;;;;;;;31.08;23.70;;;;;;;4.22;100.00;99510.69;6183052;23;20043;-84
2022/01/04 01:47:55;;;;;;;30.02;23.08;;;;;;;4.25;100.00;99509.88;6156144;23;20001;-84
2022/01/04 01:50:21;;;;;;;33.30;24.98;;;;;;;4.23;100.00;99498.53;6132251;23;20020;-84
2022/01/04 01:52:48;;;;;;;33.88;23.10;;;;;;;4.22;100.00;99496.97;6156270;23;20017;-84
2022/01/04 01:55:16;;;;;;;34.35;23.45;;;;;;;4.24;100.00;99475.41;6131737;23;20083;-84
2022/01/04 01:57:42;;;;;;;31.10;23.08;;;;;;;4.19;100.00;99479.38;6156712;23;20023;-84
2022/01/04 02:00:10;;;;;;;32.33;22.48;;;;;;;4.32;100.00;99495.31;6155928;23;20096;-84
2022/01/04 02:02:38;;;;;;;32.05;23.63;;;;;;;4.32;100.00;99493.34;6128099;23;20088;-81
2022/01/04 02:05:04;;;;;;;32.55;23.45;;;;;;;4.38;100.00;99502.69;6180179;23;20013;-81
2022/01/04 02:07:30;;;;;;;30.50;22.13;;;;;;;4.39;100.00;99498.78;6154884;23;20530;-81
2022/01/04 02:10:14;;;;;;;30.08;22.85;;;;;;;4.41;100.00;99493.63;6180720;23;20013;-82
2022/01/04 02:12:47;;;;;;;31.65;22.35;;;;;;;4.42;100.00;99497.94;6181305;23;20013;-81
2022/01/04 02:15:15;;;;;;;30.17;23.20;;;;;;;4.42;100.00;99486.19;6180926;23;20087;-81
2022/01/04 02:17:41;;;;;;;28.83;22.05;;;;;;;4.41;100.00;99479.91;6180869;23;20462;-83
2022/01/04 02:20:07;;;;;;;30.63;22.73;;;;;;;4.42;100.00;99466.97;6180249;23;20013;-84
2022/01/04 02:22:34;;;;;;;30.25;22.42;;;;;;;4.41;100.00;99463.44;6155273;23;20008;-84
2022/01/04 02:24:59;;;;;;;29.30;21.67;;;;;;;4.42;100.00;99465.00;6181541;23;20375;-84
2022/01/04 02:27:27;;;;;;;30.33;21.60;;;;;;;4.36;100.00;99446.66;6182425;23;20012;-84
2022/01/04 02:29:53;;;;;;;29.92;22.13;;;;;;;4.36;100.00;99455.66;6181205;23;20040;-85
2022/01/04 02:32:18;;;;;;;30.02;23.00;;;;;;;4.31;100.00;99445.13;6181475;23;20013;-84
2022/01/04 02:34:49;;;;;;;31.55;21.50;;;;;;;4.34;100.00;99449.00;6182329;23;20013;-85
2022/01/04 02:37:18;;;;;;;28.65;22.27;;;;;;;4.33;100.00;99444.72;6181439;23;20013;-84
2022/01/04 02:39:43;;;;;;;29.90;22.30;;;;;;;4.33;100.00;99434.50;6180284;23;20009;-81
2022/01/04 02:42:09;;;;;;;27.73;21.23;;;;;;;4.32;100.00;99430.22;6182349;23;20560;-81
2022/01/04 02:44:34;;;;;;;30.02;21.92;;;;;;;4.31;100.00;99425.13;6180913;23;20015;-81
2022/01/04 02:47:00;;;;;;;28.67;21.85;;;;;;;4.28;100.00;99434.97;6180750;23;20013;-81
2022/01/04 02:49:25;;;;;;;29.08;22.13;;;;;;;4.28;100.00;99421.25;6180614;23;20339;-81
2022/01/04 02:51:51;;;;;;;33.75;22.95;;;;;;;4.31;100.00;99420.41;6155058;23;20028;-81
2022/01/04 02:54:17;;;;;;;31.02;22.25;;;;;;;4.39;100.00;99427.38;6180910;23;20332;-81
2022/01/04 02:56:42;;;;;;;29.77;22.25;;;;;;;4.40;100.00;99406.19;6178762;23;20355;-81
2022/01/04 02:59:08;;;;;;;28.92;21.58;;;;;;;4.39;100.00;99404.63;6181525;23;20020;-81
2022/01/04 03:01:33;;;;;;;27.65;20.88;;;;;;;4.39;100.00;99405.41;6179437;23;20001;-81
2022/01/04 03:03:59;;;;;;;28.23;20.70;;;;;;;4.43;100.00;99408.88;6154569;23;20445;-81
2022/01/04 03:06:25;;;;;;;29.13;20.55;;;;;;;4.41;100.00;99405.75;6181067;23;20063;-81
2022/01/04 03:08:50;;;;;;;27.83;20.17;;;;;;;4.43;100.00;99397.13;6180423;23;20084;-82
2022/01/04 03:11:16;;;;;;;28.08;19.58;;;;;;;4.35;100.00;99390.94;6154956;23;20462;-81
2022/01/04 03:13:41;;;;;;;28.30;19.83;;;;;;;4.38;100.00;99392.88;6155667;23;20521;-81
2022/01/04 03:16:07;;;;;;;25.58;19.60;;;;;;;4.36;100.00;99395.25;6154691;23;20429;-81
2022/01/04 03:18:33;;;;;;;26.17;18.73;;;;;;;4.43;100.00;99397.91;6181314;23;20016;-81
2022/01/04 03:20:58;;;;;;;26.17;18.95;;;;;;;4.38;100.00;99381.09;6183597;23;20017;-81
2022/01/04 03:23:24;;;;;;;27.05;19.27;;;;;;;4.38;100.00;99389.34;6183620;23;20339;-81
2022/01/04 03:25:49;;;;;;;26.80;19.33;;;;;;;4.35;100.00;99388.19;6182091;23;20087;-82
2022/01/04 03:28:19;;;;;;;26.77;19.13;;;;;;;4.35;100.00;99395.66;6157196;23;20076;-81
2022/01/04 03:30:45;;;;;;;28.00;19.15;;;;;;;4.25;100.00;99383.59;6157792;23;20379;-81
2022/01/04 03:33:11;;;;;;;25.83;18.88;;;;;;;4.29;100.00;99386.34;6156728;23;20009;-81
2022/01/04 03:35:36;;;;;;;25.10;18.75;;;;;;;4.19;100.00;99380.53;6157042;23;20122;-84
2022/01/04 03:38:02;;;;;;;27.38;18.73;;;;;;;4.10;100.00;99366.53;6182851;23;20005;-85
2022/01/04 03:40:27;;;;;;;26.52;19.88;;;;;;;4.13;100.00;99359.44;6157024;23;20009;-85
2022/01/04 03:42:52;;;;;;;24.17;18.42;;;;;;;4.02;100.00;99354.06;6182460;23;20013;-84
2022/01/04 03:45:18;;;;;;;26.15;19.40;;;;;;;3.99;100.00;99351.38;6155917;23;20012;-84
2022/01/04 03:47:43;;;;;;;27.48;19.38;;;;;;;3.94;100.00;99346.31;6182052;23;20009;-84
2022/01/04 03:50:09;;;;;;;28.85;20.23;;;;;;;3.92;100.00;99344.00;6182722;23;20530;-84
2022/01/04 03:52:37;;;;;;;29.73;19.77;;;;;;;3.91;100.00;99319.72;6157248;23;20027;-84
2022/01/04 03:55:05;;;;;;;25.67;19.02;;;;;;;3.91;100.00;99325.97;6182977;23;20016;-81
2022/01/04 03:57:30;;;;;;;27.77;19.67;;;;;;;3.87;100.00;99330.72;6182720;23;20023;-81
2022/01/04 03:59:56;;;;;;;24.83;18.40;;;;;;;3.84;100.00;99322.53;6157051;23;20069;-81
2022/01/04 04:02:21;;;;;;;26.00;19.08;;;;;;;3.82;100.00;99316.66;6181465;23;20021;-81
2022/01/04 04:04:47;;;;;;;24.80;18.33;;;;;;;3.87;100.00;99318.97;6182305;23;20040;-81
2022/01/04 04:07:12;;;;;;;25.25;17.95;;;;;;;3.86;100.00;99314.66;6156736;23;20364;-81
2022/01/04 04:09:39;;;;;;;25.88;18.45;;;;;;;3.86;100.00;99303.69;6156051;23;20017;-81
2022/01/04 04:12:05;;;;;;;26.33;18.17;;;;;;;3.84;100.00;99289.63;6181287;23;20044;-82
2022/01/04 04:14:31;;;;;;;24.00;17.85;;;;;;;3.83;100.00;99296.28;6181814;23;20017;-85
2022/01/04 04:16:56;;;;;;;23.25;17.67;;;;;;;3.76;100.00;99291.66;6155597;23;20427;-86
2022/01/04 04:19:22;;;;;;;26.63;17.77;;;;;;;3.75;100.00;99299.13;6183366;23;20407;-86
2022/01/04 04:21:47;;;;;;;25.05;17.20;;;;;;;3.65;100.00;99275.31;6181724;23;20009;-86
2022/01/04 04:24:13;;;;;;;23.58;16.95;;;;;;;3.66;100.00;99276.88;6181443;23;20039;-86
2022/01/04 04:26:38;;;;;;;23.63;16.92;;;;;;;3.65;100.00;99283.53;6183082;23;20013;-86
2022/01/04 04:29:04;;;;;;;27.13;17.50;;;;;;;3.69;100.00;99286.25;6182549;23;20001;-86
2022/01/04 04:31:29;;;;;;;22.25;16.98;;;;;;;3.63;100.00;99271.44;6182316;23;20013;-82
2022/01/04 04:33:55;;;;;;;25.83;17.52;;;;;;;3.60;100.00;99262.03;6182785;23;20092;-82
2022/01/04 04:36:20;;;;;;;21.05;15.00;;;;;;;3.52;100.00;99255.09;6156726;23;20024;-82
2022/01/04 04:38:46;;;;;;;21.00;15.93;;;;;;;3.46;100.00;99256.72;6181503;23;20118;-82
2022/01/04 04:41:11;;;;;;;22.83;16.83;;;;;;;3.50;100.00;99246.50;6107434;23;20055;-82
2022/01/04 04:43:37;;;;;;;24.80;16.20;;;;;;;3.49;100.00;99247.69;6156794;23;20001;-82
2022/01/04 04:46:03;;;;;;;21.45;16.15;;;;;;;3.45;100.00;99238.72;6156066;23;20474;-82
2022/01/04 04:48:28;;;;;;;21.05;16.17;;;;;;;3.69;100.00;99254.13;6131208;23;20052;-82
2022/01/04 04:50:54;;;;;;;24.25;17.50;;;;;;;3.72;100.00;99255.28;6155502;23;20017;-82
2022/01/04 04:53:19;;;;;;;23.60;17.23;;;;;;;3.68;100.00;99247.06;6155720;23;20020;-85
2022/01/04 04:55:45;;;;;;;26.40;16.27;;;;;;;3.65;100.00;99245.16;6131484;23;20020;-86
2022/01/04 04:58:12;;;;;;;21.77;16.27;;;;;;;3.69;100.00;99245.09;6182476;23;20036;-86
2022/01/04 05:00:38;;;;;;;23.98;15.93;;;;;;;3.63;100.00;99238.53;6182461;23;20477;-86
2022/01/04 05:03:03;;;;;;;23.70;16.23;;;;;;;3.67;100.00;99255.72;6130727;23;20393;-86
2022/01/04 05:05:29;;;;;;;24.02;16.02;;;;;;;3.64;100.00;99245.56;6183057;23;20036;-85
2022/01/04 05:07:54;;;;;;;22.17;15.57;;;;;;;3.59;100.00;99257.78;6156619;23;20348;-86
2022/01/04 05:10:20;;;;;;;23.20;15.70;;;;;;;3.56;100.00;99257.81;6184383;23;20005;-85
2022/01/04 05:12:47;;;;;;;23.17;16.75;;;;;;;3.53;100.00;99256.66;6183658;23;20076;-86
2022/01/04 05:15:12;;;;;;;21.70;15.80;;;;;;;3.51;100.00;99252.78;6183461;23;20012;-85
2022/01/04 05:17:38;;;;;;;21.20;15.45;;;;;;;3.46;100.00;99236.75;6183798;23;20013;-86
2022/01/04 05:20:04;;;;;;;21.42;16.10;;;;;;;3.48;100.00;99243.38;6157363;23;20459;-86
2022/01/04 05:22:29;;;;;;;23.45;16.60;;;;;;;3.49;100.00;99239.47;6183537;23;20052;-86
2022/01/04 05:24:55;;;;;;;21.20;15.40;;;;;;;3.51;100.00;99241.81;6182952;23;20001;-85
2022/01/04 05:27:21;;;;;;;23.55;15.55;;;;;;;3.52;100.00;99238.63;6183151;23;20020;-86
2022/01/04 05:29:46;;;;;;;23.38;16.13;;;;;;;3.48;100.00;99226.94;6156505;23;20044;-82
2022/01/04 05:32:12;;;;;;;20.33;15.23;;;;;;;3.52;100.00;99230.41;6183161;23;20088;-82
2022/01/04 05:34:37;;;;;;;19.25;14.02;;;;;;;3.45;100.00;99222.25;6182651;23;20020;-82
2022/01/04 05:37:03;;;;;;;21.08;15.52;;;;;;;3.49;100.00;99228.50;6182072;23;20005;-82
2022/01/04 05:39:29;;;;;;;19.83;14.77;;;;;;;3.47;100.00;99222.66;6131834;23;20096;-82
2022/01/04 05:41:54;;;;;;;20.10;14.98;;;;;;;3.47;100.00;99225.41;6156385;23;20389;-82
2022/01/04 05:44:20;;;;;;;19.30;14.68;;;;;;;3.40;100.00;99219.22;6182907;23;20386;-82
2022/01/04 05:46:45;;;;;;;20.58;14.55;;;;;;;3.43;100.00;99229.34;6156651;23;20009;-82
2022/01/04 05:49:12;;;;;;;19.98;14.60;;;;;;;3.42;100.00;99228.56;6182263;23;20006;-82
2022/01/04 05:51:37;;;;;;;21.10;14.85;;;;;;;3.46;100.00;99240.28;6182690;23;20013;-82
2022/01/04 05:54:03;;;;;;;18.63;13.93;;;;;;;3.42;100.00;99241.50;6182049;23;20005;-82
2022/01/04 05:56:29;;;;;;;19.02;14.38;;;;;;;3.32;100.00;99218.50;6182335;23;20009;-82
2022/01/04 05:58:54;;;;;;;20.63;14.07;;;;;;;3.41;100.00;99215.25;6180581;23;20463;-82
2022/01/04 06:01:19;;;;;;;21.30;15.25;;;;;;;3.41;100.00;99204.28;6179696;23;20124;-81
2022/01/04 06:03:46;;;;;;;20.65;14.68;;;;;;;3.47;100.00;99202.69;6179996;23;20013;-82
2022/01/04 06:06:12;;;;;;;21.73;15.48;;;;;;;3.40;100.00;99203.50;6154184;23;20036;-81
2022/01/04 06:08:38;;;;;;;20.92;14.98;;;;;;;3.38;100.00;99194.94;6154240;23;20009;-86
2022/01/04 06:11:06;;;;;;;23.05;15.10;;;;;;;3.40;100.00;99189.81;6128564;23;20342;-84
2022/01/04 06:16:16;;;;;;;22.70;16.70;;;;;;;3.37;100.00;99176.16;6179505;23;20411;-85
2022/01/04 06:18:42;;;;;;;20.40;15.50;;;;;;;3.37;100.00;99173.41;6154480;23;20052;-85
2022/01/04 06:21:09;;;;;;;23.92;17.55;;;;;;;3.34;100.00;99161.31;6179181;23;20186;-87
2022/01/04 06:23:34;;;;;;;23.75;18.02;;;;;;;3.33;100.00;99170.72;6129894;23;20084;-86
2022/01/04 06:26:00;;;;;;;25.90;18.33;;;;;;;3.32;100.00;99169.16;6180525;23;20013;-86
2022/01/04 06:28:26;;;;;;;23.40;16.55;;;;;;;3.36;100.00;99180.09;6156594;23;20013;-86
2022/01/04 06:30:51;;;;;;;21.98;16.75;;;;;;;3.36;100.00;99180.84;6182590;23;20123;-87
2022/01/04 06:33:21;;;;;;;21.52;15.43;;;;;;;3.32;100.00;99174.63;6154968;23;20502;-86
2022/01/04 06:35:47;;;;;;;21.05;15.80;;;;;;;3.33;100.00;99180.91;6155320;23;20017;-86
2022/01/04 06:38:13;;;;;;;22.85;15.82;;;;;;;3.35;100.00;99179.31;6155069;23;20013;-86
2022/01/04 06:40:39;;;;;;;23.00;15.35;;;;;;;3.37;100.00;99179.66;6155937;23;20339;-86
2022/01/04 06:43:04;;;;;;;21.20;16.13;;;;;;;3.36;100.00;99169.13;6182250;23;20002;-86
2022/01/04 06:45:30;;;;;;;22.85;16.67;;;;;;;3.36;100.00;99169.13;6131555;23;20095;-85
2022/01/04 06:47:56;;;;;;;23.25;16.58;;;;;;;3.38;100.00;99174.97;6155769;23;20016;-86
2022/01/04 06:50:21;;;;;;;23.23;16.65;;;;;;;3.38;100.00;99178.50;6153424;23;20013;-85
2022/01/04 06:52:47;;;;;;;21.05;14.98;;;;;;;3.37;100.00;99182.41;6152038;23;20047;-84
2022/01/04 06:55:14;;;;;;;21.00;15.55;;;;;;;3.39;100.00;99177.31;6183432;23;20020;-85
2022/01/04 06:57:39;;;;;;;21.83;15.52;;;;;;;3.48;100.00;99172.09;6158039;23;20013;-85
2022/01/04 07:00:06;;;;;;;22.55;15.73;;;;;;;3.51;100.00;99170.50;6157818;23;20494;-85
2022/01/04 07:02:32;;;;;;;22.05;15.95;;;;;;;3.45;100.00;99156.47;6180627;23;20025;-85
2022/01/04 07:04:57;;;;;;;22.45;15.18;;;;;;;3.55;100.00;99171.25;6180255;23;20009;-85
2022/01/04 07:07:24;;;;;;;19.60;14.95;;;;;;;3.48;100.00;99161.13;6180983;23;20037;-86
2022/01/04 07:09:50;;;;;;;20.38;15.82;;;;;;;3.56;100.00;99167.31;6180459;23;20028;-86
2022/01/04 07:12:15;;;;;;;22.30;15.68;;;;;;;3.56;100.00;99173.56;6154409;23;20005;-86
2022/01/04 07:14:41;;;;;;;23.10;16.58;;;;;;;3.59;100.00;99177.47;6180973;23;20059;-86
2022/01/04 07:17:06;;;;;;;21.67;15.63;;;;;;;3.58;100.00;99170.41;6182604;23;20041;-86
2022/01/04 07:19:32;;;;;;;21.48;15.48;;;;;;;3.62;100.00;99160.19;6184550;23;20013;-86
2022/01/04 07:21:57;;;;;;;22.85;15.48;;;;;;;3.67;100.00;99167.97;6157711;23;20049;-85
2022/01/04 07:24:23;;;;;;;20.60;14.93;;;;;;;3.69;100.00;99160.84;6184558;23;20419;-82
2022/01/04 07:26:49;;;;;;;20.67;14.77;;;;;;;3.68;100.00;99150.31;6184818;23;20021;-85
2022/01/04 07:29:14;;;;;;;21.77;14.98;;;;;;;3.68;100.00;99142.09;6157534;23;20012;-85
2022/01/04 07:31:40;;;;;;;19.92;14.43;;;;;;;3.75;100.00;99148.25;6184594;23;20017;-85
2022/01/04 07:34:05;;;;;;;19.33;14.57;;;;;;;3.76;100.00;99138.81;6183932;23;20001;-85
2022/01/04 07:36:32;;;;;;;21.08;14.98;;;;;;;3.80;100.00;99149.00;6184837;23;20419;-86
2022/01/04 07:38:58;;;;;;;21.58;15.82;;;;;;;3.80;100.00;99138.00;6183854;23;20017;-86
2022/01/04 07:41:23;;;;;;;20.55;15.25;;;;;;;3.87;100.00;99124.19;6158200;23;20065;-87
2022/01/04 07:43:49;;;;;;;19.35;15.00;;;;;;;3.87;100.00;99121.44;6158076;23;20035;-86
2022/01/04 07:46:15;;;;;;;20.45;15.05;;;;;;;3.95;100.00;99131.91;6157962;23;20386;-82
2022/01/04 07:48:40;;;;;;;21.33;15.68;;;;;;;3.98;100.00;99117.34;6157986;23;20009;-82
2022/01/04 07:51:06;;;;;;;20.90;14.90;;;;;;;4.04;100.00;99115.72;6184167;23;20060;-82
2022/01/04 07:53:31;;;;;;;18.73;13.73;;;;;;;4.13;100.00;99115.16;6184140;23;20259;-81
2022/01/04 07:55:57;;;;;;;19.13;13.90;;;;;;;4.19;100.00;99108.03;6157443;23;20451;-81
2022/01/04 07:58:23;;;;;;;18.70;14.65;;;;;;;4.25;100.00;99119.31;6157606;23;20080;-81
2022/01/04 08:00:49;;;;;;;18.95;14.32;;;;;;;4.25;100.00;99103.59;6158170;23;20040;-82
2022/01/04 08:03:15;;;;;;;20.50;14.18;;;;;;;4.35;100.00;99099.91;6183352;23;20390;-82
2022/01/04 08:05:40;;;;;;;19.73;14.63;;;;;;;4.45;100.00;99093.44;6184144;23;20020;-82
2022/01/04 08:08:06;;;;;;;19.05;14.63;;;;;;;4.53;100.00;99086.63;6183015;23;20016;-82
2022/01/04 08:10:32;;;;;;;19.20;14.10;;;;;;;4.51;100.00;99080.81;6157752;23;20016;-81
2022/01/04 08:12:57;;;;;;;18.35;14.07;;;;;;;4.60;100.00;99075.56;6183911;23;20477;-80
2022/01/04 08:15:23;;;;;;;19.75;15.40;;;;;;;4.58;100.00;99072.44;6181925;23;20005;-81
2022/01/04 08:17:49;;;;;;;19.20;14.80;;;;;;;4.61;100.00;99077.06;6183527;23;20386;-80
2022/01/04 08:20:17;;;;;;;19.42;14.40;;;;;;;4.69;100.00;99096.97;6183896;23;20095;-84
2022/01/04 08:22:43;;;;;;;19.23;14.55;;;;;;;4.74;100.00;99093.72;6184253;23;20016;-81
2022/01/04 08:25:09;;;;;;;18.90;14.23;;;;;;;4.78;100.00;99093.66;6157494;23;20080;-81
2022/01/04 08:27:35;;;;;;;21.67;15.93;;;;;;;4.84;100.00;99089.25;6158145;23;20012;-81
2022/01/04 08:30:01;;;;;;;20.42;14.57;;;;;;;4.85;100.00;99077.06;6156063;23;20084;-81
2022/01/04 08:32:26;;;;;;;19.90;14.77;;;;;;;4.89;100.00;99075.03;6155448;23;20056;-81
2022/01/04 08:34:52;;;;;;;18.75;14.15;;;;;;;4.97;100.00;99092.94;6154790;23;20395;-81
2022/01/04 08:37:18;;;;;;;18.98;13.80;;;;;;;5.02;100.00;99084.16;6156366;23;20011;-81
2022/01/04 08:39:46;;;;;;;18.02;13.45;;;;;;;4.99;100.00;99071.28;6132517;23;20095;-84
2022/01/04 08:42:11;;;;;;;17.50;13.93;;;;;;;5.08;100.00;99075.03;6183579;23;20012;-81
2022/01/04 08:44:39;;;;;;;17.27;13.48;;;;;;;5.10;100.00;99069.09;6183382;23;20454;-81
2022/01/04 08:47:07;;;;;;;18.33;14.02;;;;;;;5.16;100.00;99059.16;6183669;23;20020;-81
2022/01/04 08:49:33;;;;;;;17.23;14.00;;;;;;;5.25;100.00;99058.59;6183933;23;20378;-81
2022/01/04 08:51:58;;;;;;;19.10;13.50;;;;;;;5.30;100.00;99055.34;6183689;23;20009;-81
2022/01/04 08:54:24;;;;;;;17.90;13.65;;;;;;;5.36;100.00;99054.41;6157222;23;20020;-81
2022/01/04 08:56:54;;;;;;;17.75;14.30;;;;;;;5.34;100.00;99043.06;6183739;23;20013;-81
2022/01/04 08:59:20;;;;;;;17.98;13.75;;;;;;;5.36;100.00;99040.66;6156734;23;20051;-84
2022/01/04 09:01:45;;;;;;;16.98;13.73;;;;;;;5.35;100.00;99041.84;6157043;23;20084;-81
2022/01/04 09:04:11;;;;;;;17.15;12.80;;;;;;;5.45;100.00;99040.09;6157254;23;20032;-81
2022/01/04 09:06:37;;;;;;;16.42;12.23;;;;;;;5.45;100.00;99027.13;6184213;23;20427;-81
2022/01/04 09:09:03;;;;;;;17.30;13.00;;;;;;;5.53;100.00;99031.25;6183256;23;20009;-81
2022/01/04 09:11:29;;;;;;;17.70;13.32;;;;;;;5.57;100.00;99022.91;6157372;23;20355;-81
2022/01/04 09:14:10;;;;;;;15.40;12.80;;;;;;;5.62;100.00;99022.41;6183518;23;20020;-81
2022/01/04 09:19:25;;;;;;;15.73;12.35;;;;;;;5.77;100.00;99006.34;6161055;23;20013;-84
2022/01/04 09:21:51;;;;;;;16.48;12.68;;;;;;;5.79;100.00;99003.91;6157207;23;20080;-81
2022/01/04 09:24:17;;;;;;;16.70;13.70;;;;;;;5.85;100.00;98996.72;6156831;23;20008;-81
2022/01/04 09:26:42;;;;;;;17.83;13.63;;;;;;;5.91;100.00;98972.97;6157176;23;20051;-81
2022/01/04 09:29:08;;;;;;;16.88;14.13;;;;;;;6.02;100.00;98982.56;6132285;23;20035;-81
2022/01/04 09:31:34;;;;;;;16.70;13.52;;;;;;;6.08;100.00;98977.28;6156960;23;20024;-81
2022/01/04 09:34:01;;;;;;;15.32;12.80;;;;;;;6.17;100.00;98974.69;6156522;23;20019;-81
2022/01/04 09:36:32;;;;;;;16.00;12.82;;;;;;;6.30;100.00;98985.78;6132570;23;20461;-84
2022/01/04 09:38:58;;;;;;;16.98;14.15;;;;;;;6.37;100.00;98977.31;6132469;23;20028;-84
2022/01/04 09:41:23;;;;;;;15.50;13.57;;;;;;;6.46;100.00;98975.50;6132506;23;20080;-84
2022/01/04 09:43:50;;;;;;;15.63;11.88;;;;;;;6.55;100.00;98974.88;6156946;23;20048;-84
2022/01/04 09:46:16;;;;;;;15.77;10.95;;;;;;;6.61;100.00;98967.59;6107811;23;20005;-84
2022/01/04 09:48:41;;;;;;;12.90;10.30;;;;;;;6.71;100.00;98963.00;6156695;23;20040;-84
2022/01/04 09:51:10;;;;;;;14.70;11.30;;;;;;;6.79;100.00;98956.09;6183272;23;20009;-84
2022/01/04 09:53:36;;;;;;;13.00;10.18;;;;;;;6.85;100.00;98949.59;6157537;23;20020;-84
2022/01/04 09:56:02;;;;;;;14.60;10.55;;;;;;;6.97;100.00;98954.34;6183167;23;20013;-84
2022/01/04 09:58:28;;;;;;;12.48;9.65;;;;;;;7.09;100.00;98944.53;6182705;23;20017;-84
2022/01/04 10:00:54;;;;;;;11.93;9.50;;;;;;;7.34;100.00;98932.75;6156859;23;20039;-84
2022/01/04 10:03:29;;;;;;;12.32;9.13;;;;;;;7.50;100.00;98925.13;6182241;23;20017;-82
2022/01/04 10:06:14;;;;;;;13.38;8.82;;;;;;;7.75;100.00;98907.00;6156874;23;20017;-84
2022/01/04 10:09:08;;;;;;;10.30;8.15;;;;;;;7.93;100.00;98896.09;6133144;23;20040;-83
2022/01/04 10:11:37;;;;;;;11.73;7.72;;;;;;;8.22;100.00;98907.72;6158141;23;20100;-83
2022/01/04 10:14:35;;;;;;;9.38;7.00;;;;;;;8.40;100.00;98916.19;6182802;23;20044;-84
2022/01/04 10:17:09;;;;;;;10.15;6.85;;;;;;;8.60;100.00;98902.06;6133291;23;20024;-84
2022/01/04 10:19:36;;;;;;;;;;;;;;;8.75;100.00;98894.78;6157355;23;20017;-82
2022/01/04 10:22:23;;;;;;;7.75;5.68;;;;;;;8.95;100.00;98894.41;6157001;23;19908;-81
2022/01/04 10:25:07;;;;;;;8.55;6.28;;;;;;;9.14;100.00;98876.66;6183054;23;20024;-82
2022/01/04 10:27:45;;;;;;;7.40;5.70;;;;;;;9.32;100.00;98887.03;6184158;23;20013;-82
2022/01/04 10:30:20;;;;;;;8.50;5.90;;;;;;;9.51;100.00;98874.78;6158962;23;20060;-83
2022/01/04 10:33:01;;;;;;;7.88;5.80;;;;;;;9.77;100.00;98870.53;6158695;23;20076;-82
2022/01/04 10:35:42;;;;;;;8.90;4.95;;;;;;;10.03;100.00;98862.69;6185549;23;20444;-82
2022/01/04 10:38:22;;;;;;;8.15;4.80;;;;;;;10.26;99.16;98864.91;6134088;23;20040;-81
2022/01/04 10:41:03;;;;;;;7.85;4.78;;;;;;;10.47;97.65;98856.88;6159092;23;20009;-82
2022/01/04 10:43:36;;;;;;;5.18;4.07;;;;;;;10.76;95.57;98857.09;6184842;23;20013;-82
2022/01/04 10:46:02;;;;;;;5.35;3.58;;;;;;;11.07;91.39;98852.06;6158890;23;20093;-82
2022/01/04 10:48:39;;;;;;;6.75;3.65;;;;;;;11.20;89.74;98851.88;6158195;23;20028;-82
2022/01/04 10:51:08;;;;;;;5.30;3.97;;;;;;;11.19;89.18;98851.09;6158794;23;20013;-82
2022/01/04 10:53:42;;;;;;;6.47;3.70;;;;;;;11.22;89.51;98860.47;6158663;23;20059;-82
2022/01/04 10:56:32;;;;;;;7.20;3.42;;;;;;;11.18;88.25;98855.09;6133981;23;20062;-84
2022/01/04 10:58:59;;;;;;;6.97;3.40;;;;;;;11.16;87.25;98852.00;6184646;23;20013;-84
2022/01/04 11:01:37;;;;;;;5.50;3.50;;;;;;;11.12;88.32;98847.91;6157903;23;20096;-83
2022/01/04 11:04:03;;;;;;;7.45;4.05;;;;;;;11.12;88.80;98848.63;6158576;23;20017;-84
2022/01/04 11:06:35;;;;;;;5.22;3.47;;;;;;;11.17;86.95;98866.66;6184558;23;20428;-83
2022/01/04 11:09:02;;;;;;;5.47;3.53;;;;;;;11.19;87.36;98850.31;6158195;23;20012;-84
2022/01/04 11:11:27;;;;;;;5.55;2.92;;;;;;;11.16;86.51;98849.22;6158269;23;20013;-84
2022/01/04 11:13:53;;;;;;;4.30;3.00;;;;;;;11.18;85.60;98838.44;6184490;23;20080;-84
2022/01/04 11:16:22;;;;;;;6.40;3.60;;;;;;;11.23;85.49;98840.59;6157783;23;20317;-84
2022/01/04 11:18:50;;;;;;;6.50;4.10;;;;;;;11.20;85.67;98830.41;6158007;23;20013;-84
2022/01/04 11:21:24;;;;;;;6.65;4.43;;;;;;;11.20;86.21;98835.97;6184173;23;20013;-84
2022/01/04 11:23:50;;;;;;;5.10;3.58;;;;;;;11.26;86.30;98835.31;6158794;23;20338;-84
2022/01/04 11:26:16;;;;;;;9.05;4.65;;;;;;;11.31;86.23;98837.47;6158359;23;20072;-83